createdAt,value
2023-05-05T00:00:37.000Z,86.89
2023-05-05T00:01:41.000Z,87.2
2023-05-05T00:02:44.000Z,87.4
2023-05-05T00:03:48.000Z,87.3
2023-05-05T00:04:52.000Z,87.65
2023-05-05T00:05:56.000Z,88.1
2023-05-05T00:07:00.000Z,88.45
2023-05-05T00:08:03.000Z,89.87
2023-05-05T00:09:07.000Z,91.56
2023-05-05T00:10:11.000Z,92.74
2023-05-05T00:11:15.000Z,93.81
2023-05-05T00:12:19.000Z,94.32
2023-05-05T00:13:23.000Z,94.84
2023-05-05T00:14:26.000Z,94.74
2023-05-05T00:15:30.000Z,94.53
2023-05-05T00:16:34.000Z,94.23
2023-05-05T00:17:38.000Z,93.91
2023-05-05T00:18:42.000Z,93.6
2023-05-05T00:19:45.000Z,93.05
2023-05-05T00:20:49.000Z,92.74
2023-05-05T00:21:53.000Z,92.27
2023-05-05T00:22:57.000Z,91.91
2023-05-05T00:24:01.000Z,91.71
2023-05-05T00:25:04.000Z,91.71
2023-05-05T00:26:08.000Z,92.02
2023-05-05T00:27:12.000Z,92.33
2023-05-05T00:28:16.000Z,92.43
2023-05-05T00:29:19.000Z,92.38
2023-05-05T00:30:23.000Z,92.49
2023-05-05T00:31:27.000Z,92.08
2023-05-05T00:32:30.000Z,92.49
2023-05-05T00:33:34.000Z,92.8
2023-05-05T00:34:38.000Z,92.9
2023-05-05T00:35:42.000Z,93.21
2023-05-05T00:36:46.000Z,92.94
2023-05-05T00:37:49.000Z,92.12
2023-05-05T00:38:53.000Z,92.18
2023-05-05T00:39:57.000Z,92.08
2023-05-05T00:41:01.000Z,91.71
2023-05-05T00:42:04.000Z,91.36
2023-05-05T00:43:08.000Z,90.94
2023-05-05T00:44:12.000Z,90.73
2023-05-05T00:45:16.000Z,90.84
2023-05-05T00:46:20.000Z,90.64
2023-05-05T00:47:24.000Z,90.43
2023-05-05T00:48:27.000Z,90.64
2023-05-05T00:49:31.000Z,90.73
2023-05-05T00:50:35.000Z,90.53
2023-05-05T00:51:39.000Z,90.53
2023-05-05T00:52:43.000Z,90.73
2023-05-05T00:53:47.000Z,90.43
2023-05-05T00:54:50.000Z,90.01
2023-05-05T00:55:54.000Z,89.81
2023-05-05T00:56:58.000Z,89.91
2023-05-05T00:58:02.000Z,90.06
2023-05-05T00:59:05.000Z,90.16
2023-05-05T01:00:09.000Z,90.57
2023-05-05T01:01:13.000Z,90.47
2023-05-05T01:02:17.000Z,90.37
2023-05-05T01:03:21.000Z,90.57
2023-05-05T01:04:24.000Z,91.3
2023-05-05T01:05:28.000Z,91.3
2023-05-05T01:06:32.000Z,90.99
2023-05-05T01:07:36.000Z,90.88
2023-05-05T01:08:40.000Z,90.67
2023-05-05T01:09:43.000Z,90.99
2023-05-05T01:10:47.000Z,91.15
2023-05-05T01:11:51.000Z,90.73
2023-05-05T01:12:55.000Z,90.53
2023-05-05T01:13:59.000Z,90.33
2023-05-05T01:15:02.000Z,90.12
2023-05-05T01:16:06.000Z,90.33
2023-05-05T01:17:10.000Z,90.22
2023-05-05T01:18:14.000Z,89.91
2023-05-05T01:19:17.000Z,89.81
2023-05-05T01:20:21.000Z,90.01
2023-05-05T01:21:25.000Z,90.12
2023-05-05T01:22:29.000Z,89.91
2023-05-05T01:23:32.000Z,89.71
2023-05-05T01:24:36.000Z,89.5
2023-05-05T01:25:40.000Z,89.4
2023-05-05T01:26:44.000Z,89.29
2023-05-05T01:27:47.000Z,89.29
2023-05-05T01:28:51.000Z,89.19
2023-05-05T01:29:55.000Z,88.89
2023-05-05T01:30:59.000Z,89.29
2023-05-05T01:32:02.000Z,88.99
2023-05-05T01:33:06.000Z,89.4
2023-05-05T01:34:10.000Z,90.12
2023-05-05T01:35:14.000Z,89.61
2023-05-05T01:36:17.000Z,89.4
2023-05-05T01:37:21.000Z,88.99
2023-05-05T01:38:25.000Z,88.37
2023-05-05T01:39:29.000Z,87.96
2023-05-05T01:40:32.000Z,87.96
2023-05-05T01:41:36.000Z,87.96
2023-05-05T01:42:40.000Z,88.06
2023-05-05T01:43:44.000Z,87.85
2023-05-05T01:44:48.000Z,88.68
2023-05-05T01:45:51.000Z,90.22
2023-05-05T01:46:55.000Z,90.47
2023-05-05T01:47:59.000Z,91.13
2023-05-05T01:49:03.000Z,92.31
2023-05-05T01:50:06.000Z,93.28
2023-05-05T01:51:10.000Z,94.35
2023-05-05T01:52:14.000Z,94.87
2023-05-05T01:53:18.000Z,95.18
2023-05-05T01:54:22.000Z,95.07
2023-05-05T01:55:25.000Z,94.97
2023-05-05T01:56:29.000Z,94.97
2023-05-05T01:57:33.000Z,95.49
2023-05-05T01:58:37.000Z,95.7
2023-05-05T01:59:40.000Z,95.9
2023-05-05T02:00:44.000Z,95.9
2023-05-05T02:01:48.000Z,95.49
2023-05-05T02:02:52.000Z,95.39
2023-05-05T02:03:56.000Z,95.59
2023-05-05T02:05:00.000Z,95.18
2023-05-05T02:06:03.000Z,94.72
2023-05-05T02:07:07.000Z,94.1
2023-05-05T02:08:11.000Z,93.69
2023-05-05T02:09:15.000Z,93.38
2023-05-05T02:10:19.000Z,93.07
2023-05-05T02:11:22.000Z,92.66
2023-05-05T02:12:26.000Z,92.25
2023-05-05T02:13:30.000Z,92.14
2023-05-05T02:14:34.000Z,91.79
2023-05-05T02:15:37.000Z,91.89
2023-05-05T02:16:41.000Z,92.51
2023-05-05T02:17:45.000Z,93.34
2023-05-05T02:18:48.000Z,93.34
2023-05-05T02:19:52.000Z,93.24
2023-05-05T02:20:56.000Z,92.72
2023-05-05T02:22:00.000Z,92.31
2023-05-05T02:23:03.000Z,91.79
2023-05-05T02:24:07.000Z,91.07
2023-05-05T02:25:11.000Z,91.17
2023-05-05T02:26:15.000Z,91.79
2023-05-05T02:27:18.000Z,92.21
2023-05-05T02:28:22.000Z,92.88
2023-05-05T02:29:26.000Z,93.75
2023-05-05T02:30:30.000Z,93.85
2023-05-05T02:31:33.000Z,93.44
2023-05-05T02:32:37.000Z,92.82
2023-05-05T02:33:41.000Z,92.1
2023-05-05T02:34:45.000Z,91.58
2023-05-05T02:35:48.000Z,91.32
2023-05-05T02:36:52.000Z,91.22
2023-05-05T02:37:56.000Z,90.91
2023-05-05T02:39:00.000Z,93.49
2023-05-05T02:40:03.000Z,94.72
2023-05-05T02:41:07.000Z,95.76
2023-05-05T02:42:11.000Z,95.86
2023-05-05T02:43:15.000Z,95.55
2023-05-05T02:44:19.000Z,95.03
2023-05-05T02:45:22.000Z,94.42
2023-05-05T02:46:26.000Z,94.46
2023-05-05T02:47:30.000Z,94.15
2023-05-05T02:48:34.000Z,93.53
2023-05-05T02:49:38.000Z,92.7
2023-05-05T02:50:41.000Z,92.19
2023-05-05T02:51:45.000Z,92.6
2023-05-05T02:52:49.000Z,92.7
2023-05-05T02:53:53.000Z,92.7
2023-05-05T02:54:57.000Z,92.6
2023-05-05T02:56:00.000Z,92.6
2023-05-05T02:57:04.000Z,92.5
2023-05-05T02:58:08.000Z,92.5
2023-05-05T02:59:12.000Z,92.91
2023-05-05T03:00:15.000Z,93.22
2023-05-05T03:01:19.000Z,92.91
2023-05-05T03:02:23.000Z,93.01
2023-05-05T03:03:27.000Z,93.22
2023-05-05T03:04:31.000Z,93.12
2023-05-05T03:05:34.000Z,92.6
2023-05-05T03:06:38.000Z,92.29
2023-05-05T03:07:42.000Z,92.29
2023-05-05T03:08:46.000Z,92.46
2023-05-05T03:09:50.000Z,92.55
2023-05-05T03:10:53.000Z,92.46
2023-05-05T03:11:57.000Z,92.35
2023-05-05T03:13:01.000Z,92.14
2023-05-05T03:14:05.000Z,92.25
2023-05-05T03:15:08.000Z,92.35
2023-05-05T03:16:12.000Z,92.25
2023-05-05T03:17:16.000Z,92.46
2023-05-05T03:18:20.000Z,92.35
2023-05-05T03:19:23.000Z,92.14
2023-05-05T03:20:27.000Z,91.94
2023-05-05T03:21:31.000Z,92.14
2023-05-05T03:22:35.000Z,92.14
2023-05-05T03:23:38.000Z,92.25
2023-05-05T03:24:42.000Z,92.55
2023-05-05T03:25:46.000Z,92.35
2023-05-05T03:26:50.000Z,91.94
2023-05-05T03:27:53.000Z,91.83
2023-05-05T03:28:57.000Z,92.14
2023-05-05T03:30:01.000Z,92.46
2023-05-05T03:31:05.000Z,92.66
2023-05-05T03:32:08.000Z,92.86
2023-05-05T03:33:12.000Z,92.86
2023-05-05T03:34:16.000Z,92.76
2023-05-05T03:35:20.000Z,92.86
2023-05-05T03:36:23.000Z,93.07
2023-05-05T03:37:27.000Z,93.07
2023-05-05T03:38:31.000Z,93.07
2023-05-05T03:39:35.000Z,92.86
2023-05-05T03:40:38.000Z,92.55
2023-05-05T03:41:42.000Z,92.46
2023-05-05T03:42:46.000Z,92.35
2023-05-05T03:43:50.000Z,92.46
2023-05-05T03:44:54.000Z,93.28
2023-05-05T03:45:57.000Z,92.86
2023-05-05T03:47:01.000Z,92.55
2023-05-05T03:48:05.000Z,92.35
2023-05-05T03:49:09.000Z,91.83
2023-05-05T03:50:13.000Z,92.46
2023-05-05T03:51:16.000Z,92.76
2023-05-05T03:52:20.000Z,92.46
2023-05-05T03:53:24.000Z,91.63
2023-05-05T03:54:28.000Z,91.32
2023-05-05T03:55:32.000Z,91.11
2023-05-05T03:56:35.000Z,90.8
2023-05-05T03:57:39.000Z,90.91
2023-05-05T03:58:43.000Z,90.91
2023-05-05T03:59:47.000Z,90.8
2023-05-05T04:00:51.000Z,90.7
2023-05-05T04:01:54.000Z,90.39
2023-05-05T04:02:58.000Z,90.28
2023-05-05T04:04:02.000Z,90.59
2023-05-05T04:05:06.000Z,90.59
2023-05-05T04:06:09.000Z,91.11
2023-05-05T04:07:13.000Z,91.38
2023-05-05T04:08:17.000Z,91.07
2023-05-05T04:09:21.000Z,90.86
2023-05-05T04:10:25.000Z,90.66
2023-05-05T04:11:28.000Z,90.45
2023-05-05T04:12:32.000Z,90.31
2023-05-05T04:13:36.000Z,90.1
2023-05-05T04:14:39.000Z,89.89
2023-05-05T04:15:43.000Z,89.58
2023-05-05T04:16:47.000Z,89.44
2023-05-05T04:17:51.000Z,89.23
2023-05-05T04:18:54.000Z,89.09
2023-05-05T04:19:58.000Z,88.78
2023-05-05T04:21:02.000Z,88.17
2023-05-05T04:22:06.000Z,87.85
2023-05-05T04:23:09.000Z,88.78
2023-05-05T04:24:13.000Z,89.19
2023-05-05T04:25:17.000Z,88.89
2023-05-05T04:26:21.000Z,88.57
2023-05-05T04:27:25.000Z,88.68
2023-05-05T04:28:29.000Z,88.78
2023-05-05T04:29:32.000Z,88.68
2023-05-05T04:30:36.000Z,88.68
2023-05-05T04:31:40.000Z,88.64
2023-05-05T04:32:44.000Z,88.64
2023-05-05T04:33:47.000Z,88.74
2023-05-05T04:34:51.000Z,88.95
2023-05-05T04:35:55.000Z,89.15
2023-05-05T04:36:59.000Z,88.84
2023-05-05T04:38:03.000Z,88.64
2023-05-05T04:39:07.000Z,88.64
2023-05-05T04:40:10.000Z,88.64
2023-05-05T04:41:14.000Z,88.33
2023-05-05T04:42:18.000Z,88.43
2023-05-05T04:43:22.000Z,88.33
2023-05-05T04:44:26.000Z,88.23
2023-05-05T04:45:30.000Z,88.29
2023-05-05T04:46:33.000Z,88.29
2023-05-05T04:47:37.000Z,87.87
2023-05-05T04:48:41.000Z,87.36
2023-05-05T04:49:45.000Z,87.57
2023-05-05T04:50:49.000Z,87.36
2023-05-05T04:51:52.000Z,87.26
2023-05-05T04:52:56.000Z,87.01
2023-05-05T04:54:00.000Z,86.7
2023-05-05T04:55:03.000Z,87.73
2023-05-05T04:56:07.000Z,87.94
2023-05-05T04:57:11.000Z,87.52
2023-05-05T04:58:15.000Z,87.32
2023-05-05T04:59:18.000Z,87.28
2023-05-05T05:00:22.000Z,87.49
2023-05-05T05:01:26.000Z,87.59
2023-05-05T05:02:30.000Z,87.55
2023-05-05T05:03:33.000Z,87.45
2023-05-05T05:04:37.000Z,87.45
2023-05-05T05:05:41.000Z,87.71
2023-05-05T05:06:45.000Z,87.71
2023-05-05T05:07:48.000Z,87.82
2023-05-05T05:08:52.000Z,87.82
2023-05-05T05:09:56.000Z,87.67
2023-05-05T05:11:00.000Z,87.67
2023-05-05T05:12:04.000Z,87.43
2023-05-05T05:13:07.000Z,87.43
2023-05-05T05:14:11.000Z,86.98
2023-05-05T05:15:15.000Z,86.57
2023-05-05T05:16:19.000Z,86.15
2023-05-05T05:17:22.000Z,86.05
2023-05-05T05:18:26.000Z,86.98
2023-05-05T05:19:30.000Z,87.7
2023-05-05T05:20:34.000Z,88.45
2023-05-05T05:21:37.000Z,88.66
2023-05-05T05:22:41.000Z,88.86
2023-05-05T05:23:45.000Z,89.33
2023-05-05T05:24:49.000Z,89.43
2023-05-05T05:25:53.000Z,89.43
2023-05-05T05:26:56.000Z,89.23
2023-05-05T05:28:00.000Z,89.19
2023-05-05T05:29:04.000Z,89.19
2023-05-05T05:30:08.000Z,89.5
2023-05-05T05:31:12.000Z,89.76
2023-05-05T05:32:15.000Z,90.17
2023-05-05T05:33:19.000Z,90.37
2023-05-05T05:34:23.000Z,90.54
2023-05-05T05:35:27.000Z,90.44
2023-05-05T05:36:30.000Z,90.34
2023-05-05T05:37:34.000Z,89.89
2023-05-05T05:38:38.000Z,88.96
2023-05-05T05:39:42.000Z,88.76
2023-05-05T05:40:46.000Z,89.03
2023-05-05T05:41:50.000Z,88.51
2023-05-05T05:42:53.000Z,89.12
2023-05-05T05:43:57.000Z,89.23
2023-05-05T05:45:01.000Z,89.03
2023-05-05T05:46:05.000Z,89.18
2023-05-05T05:47:09.000Z,89.5
2023-05-05T05:48:12.000Z,89.18
2023-05-05T05:49:16.000Z,88.94
2023-05-05T05:50:20.000Z,88.53
2023-05-05T05:51:24.000Z,87.61
2023-05-05T05:52:27.000Z,87.67
2023-05-05T05:53:31.000Z,86.96
2023-05-05T05:54:35.000Z,86.51
2023-05-05T05:55:39.000Z,85.79
2023-05-05T05:56:42.000Z,85.59
2023-05-05T05:57:46.000Z,84.16
2023-05-05T05:58:50.000Z,83.61
2023-05-05T05:59:54.000Z,83.92
2023-05-05T06:00:57.000Z,83.51
2023-05-05T06:02:01.000Z,83.71
2023-05-05T06:03:05.000Z,83.51
2023-05-05T06:04:09.000Z,84.12
2023-05-05T06:05:12.000Z,84.18
2023-05-05T06:06:16.000Z,84.28
2023-05-05T06:07:20.000Z,83.37
2023-05-05T06:08:24.000Z,82.55
2023-05-05T06:09:27.000Z,82.14
2023-05-05T06:10:31.000Z,82.55
2023-05-05T06:11:35.000Z,82.21
2023-05-05T06:12:38.000Z,81.59
2023-05-05T06:13:42.000Z,82.0
2023-05-05T06:14:46.000Z,82.0
2023-05-05T06:15:50.000Z,81.39
2023-05-05T06:16:53.000Z,81.29
2023-05-05T06:17:57.000Z,81.04
2023-05-05T06:19:01.000Z,81.25
2023-05-05T06:20:05.000Z,82.47
2023-05-05T06:21:09.000Z,80.84
2023-05-05T06:22:13.000Z,81.01
2023-05-05T06:23:16.000Z,80.19
2023-05-05T06:24:20.000Z,79.27
2023-05-05T06:25:24.000Z,78.73
2023-05-05T06:26:28.000Z,79.75
2023-05-05T06:27:32.000Z,79.54
2023-05-05T06:28:35.000Z,79.24
2023-05-05T06:29:39.000Z,80.05
2023-05-05T06:30:43.000Z,79.75
2023-05-05T06:31:47.000Z,79.34
2023-05-05T06:32:50.000Z,79.71
2023-05-05T06:33:54.000Z,79.3
2023-05-05T06:34:58.000Z,79.71
2023-05-05T06:36:02.000Z,79.47
2023-05-05T06:37:06.000Z,79.06
2023-05-05T06:38:09.000Z,78.72
2023-05-05T06:39:13.000Z,78.92
2023-05-05T06:40:17.000Z,78.41
2023-05-05T06:41:21.000Z,78.52
2023-05-05T06:42:25.000Z,77.81
2023-05-05T06:43:28.000Z,76.99
2023-05-05T06:44:32.000Z,76.68
2023-05-05T06:45:36.000Z,77.6
2023-05-05T06:46:40.000Z,76.89
2023-05-05T06:47:43.000Z,77.29
2023-05-05T06:48:47.000Z,76.28
2023-05-05T06:49:51.000Z,76.04
2023-05-05T06:50:55.000Z,75.94
2023-05-05T06:51:58.000Z,75.63
2023-05-05T06:53:02.000Z,75.94
2023-05-05T06:54:06.000Z,74.88
2023-05-05T06:55:10.000Z,74.88
2023-05-05T06:56:13.000Z,74.24
2023-05-05T06:57:17.000Z,74.65
2023-05-05T06:58:21.000Z,74.1
2023-05-05T06:59:25.000Z,74.62
2023-05-05T07:00:28.000Z,74.41
2023-05-05T07:01:32.000Z,73.6
2023-05-05T07:02:36.000Z,74.41
2023-05-05T07:03:40.000Z,74.21
2023-05-05T07:04:43.000Z,72.78
2023-05-05T07:05:47.000Z,72.75
2023-05-05T07:06:51.000Z,72.04
2023-05-05T07:07:55.000Z,73.66
2023-05-05T07:08:58.000Z,73.06
2023-05-05T07:10:02.000Z,71.53
2023-05-05T07:11:06.000Z,73.77
2023-05-05T07:12:10.000Z,73.16
2023-05-05T07:13:14.000Z,75.29
2023-05-05T07:14:17.000Z,74.78
2023-05-05T07:15:21.000Z,73.77
2023-05-05T07:16:25.000Z,74.14
2023-05-05T07:17:29.000Z,74.54
2023-05-05T07:18:33.000Z,74.14
2023-05-05T07:19:36.000Z,72.08
2023-05-05T07:20:40.000Z,73.19
2023-05-05T07:21:44.000Z,72.48
2023-05-05T07:22:48.000Z,74.68
2023-05-05T07:23:52.000Z,73.36
2023-05-05T07:24:55.000Z,72.55
2023-05-05T07:25:59.000Z,72.55
2023-05-05T07:27:03.000Z,73.16
2023-05-05T07:28:07.000Z,72.04
2023-05-05T07:29:11.000Z,73.22
2023-05-05T07:30:14.000Z,72.72
2023-05-05T07:31:18.000Z,71.3
2023-05-05T07:32:22.000Z,71.3
2023-05-05T07:33:26.000Z,69.44
2023-05-05T07:34:29.000Z,69.95
2023-05-05T07:35:33.000Z,69.61
2023-05-05T07:36:37.000Z,69.58
2023-05-05T07:37:41.000Z,69.68
2023-05-05T07:38:44.000Z,70.05
2023-05-05T07:39:48.000Z,69.31
2023-05-05T07:40:52.000Z,69.82
2023-05-05T07:41:56.000Z,67.6
2023-05-05T07:42:59.000Z,68.67
2023-05-05T07:44:03.000Z,70.29
2023-05-05T07:45:07.000Z,68.47
2023-05-05T07:46:11.000Z,67.43
2023-05-05T07:47:15.000Z,66.82
2023-05-05T07:48:18.000Z,66.99
2023-05-05T07:49:22.000Z,67.7
2023-05-05T07:50:26.000Z,66.02
2023-05-05T07:51:29.000Z,66.69
2023-05-05T07:52:33.000Z,68.01
2023-05-05T07:53:37.000Z,68.48
2023-05-05T07:54:41.000Z,67.23
2023-05-05T07:55:44.000Z,65.82
2023-05-05T07:56:48.000Z,67.1
2023-05-05T07:57:52.000Z,65.69
2023-05-05T07:58:56.000Z,67.57
2023-05-05T07:59:59.000Z,64.69
2023-05-05T08:01:03.000Z,64.28
2023-05-05T08:02:07.000Z,65.26
2023-05-05T08:03:11.000Z,64.15
2023-05-05T08:04:15.000Z,64.15
2023-05-05T08:05:18.000Z,62.94
2023-05-05T08:06:22.000Z,64.86
2023-05-05T08:07:26.000Z,66.5
2023-05-05T08:08:30.000Z,67.3
2023-05-05T08:09:34.000Z,66.09
2023-05-05T08:10:37.000Z,65.99
2023-05-05T08:11:41.000Z,65.29
2023-05-05T08:12:45.000Z,65.79
2023-05-05T08:13:49.000Z,64.86
2023-05-05T08:14:52.000Z,65.46
2023-05-05T08:15:56.000Z,62.64
2023-05-05T08:17:00.000Z,63.14
2023-05-05T08:18:04.000Z,60.22
2023-05-05T08:19:08.000Z,63.24
2023-05-05T08:20:11.000Z,62.51
2023-05-05T08:21:15.000Z,57.17
2023-05-05T08:22:19.000Z,60.19
2023-05-05T08:23:23.000Z,58.88
2023-05-05T08:24:27.000Z,57.95
2023-05-05T08:25:30.000Z,58.45
2023-05-05T08:26:34.000Z,56.95
2023-05-05T08:27:38.000Z,56.95
2023-05-05T08:28:42.000Z,58.33
2023-05-05T08:29:46.000Z,59.43
2023-05-05T08:30:49.000Z,62.32
2023-05-05T08:31:53.000Z,56.79
2023-05-05T08:32:57.000Z,54.17
2023-05-05T08:34:01.000Z,55.26
2023-05-05T08:35:04.000Z,57.06
2023-05-05T08:36:08.000Z,52.64
2023-05-05T08:37:12.000Z,53.85
2023-05-05T08:38:16.000Z,56.74
2023-05-05T08:39:19.000Z,55.23
2023-05-05T08:40:23.000Z,54.13
2023-05-05T08:41:27.000Z,54.3
2023-05-05T08:42:31.000Z,53.59
2023-05-05T08:43:34.000Z,52.39
2023-05-05T08:44:38.000Z,51.46
2023-05-05T08:45:42.000Z,53.17
2023-05-05T08:46:45.000Z,49.63
2023-05-05T08:47:49.000Z,52.62
2023-05-05T08:48:53.000Z,54.5
2023-05-05T08:49:57.000Z,55.87
2023-05-05T08:51:00.000Z,52.39
2023-05-05T08:52:04.000Z,54.02
2023-05-05T08:53:08.000Z,52.32
2023-05-05T08:54:12.000Z,50.59
2023-05-05T08:55:15.000Z,52.27
2023-05-05T08:56:19.000Z,49.66
2023-05-05T08:57:23.000Z,50.76
2023-05-05T08:58:27.000Z,50.26
2023-05-05T08:59:31.000Z,50.14
2023-05-05T09:00:35.000Z,50.64
2023-05-05T09:01:38.000Z,51.02
2023-05-05T09:02:42.000Z,49.34
2023-05-05T09:03:46.000Z,52.44
2023-05-05T09:04:50.000Z,55.55
2023-05-05T09:05:53.000Z,52.64
2023-05-05T09:06:57.000Z,51.94
2023-05-05T09:08:01.000Z,53.42
2023-05-05T09:09:05.000Z,50.22
2023-05-05T09:10:09.000Z,52.22
2023-05-05T09:11:12.000Z,50.49
2023-05-05T09:12:16.000Z,51.79
2023-05-05T09:13:20.000Z,52.99
2023-05-05T09:14:24.000Z,49.62
2023-05-05T09:15:28.000Z,52.59
2023-05-05T09:16:32.000Z,49.19
2023-05-05T09:17:35.000Z,53.3
2023-05-05T09:18:39.000Z,49.87
2023-05-05T09:19:43.000Z,51.04
2023-05-05T09:20:47.000Z,52.82
2023-05-05T09:21:51.000Z,49.68
2023-05-05T09:22:54.000Z,46.98
2023-05-05T09:23:58.000Z,51.59
2023-05-05T09:25:02.000Z,52.07
2023-05-05T09:26:06.000Z,48.05
2023-05-05T09:27:09.000Z,50.62
2023-05-05T09:28:13.000Z,47.81
2023-05-05T09:29:17.000Z,45.2
2023-05-05T09:30:21.000Z,46.69
2023-05-05T09:31:24.000Z,47.83
2023-05-05T09:32:28.000Z,48.65
2023-05-05T09:33:32.000Z,46.88
2023-05-05T09:34:36.000Z,49.35
2023-05-05T09:35:40.000Z,48.08
2023-05-05T09:36:43.000Z,50.99
2023-05-05T09:37:47.000Z,45.68
2023-05-05T09:38:51.000Z,50.27
2023-05-05T09:39:54.000Z,49.83
2023-05-05T09:40:58.000Z,46.46
2023-05-05T09:42:02.000Z,43.87
2023-05-05T09:43:06.000Z,47.58
2023-05-05T09:44:09.000Z,47.48
2023-05-05T09:45:13.000Z,47.9
2023-05-05T09:46:17.000Z,50.15
2023-05-05T09:47:21.000Z,45.74
2023-05-05T09:48:24.000Z,47.24
2023-05-05T09:49:28.000Z,50.65
2023-05-05T09:50:32.000Z,48.65
2023-05-05T09:51:36.000Z,48.05
2023-05-05T09:52:40.000Z,49.25
2023-05-05T09:53:43.000Z,47.31
2023-05-05T09:54:47.000Z,45.44
2023-05-05T09:55:51.000Z,48.38
2023-05-05T09:56:55.000Z,49.48
2023-05-05T09:57:58.000Z,45.62
2023-05-05T09:59:02.000Z,42.43
2023-05-05T10:00:06.000Z,49.33
2023-05-05T10:01:10.000Z,48.43
2023-05-05T10:02:14.000Z,51.2
2023-05-05T10:03:17.000Z,48.46
2023-05-05T10:04:21.000Z,49.16
2023-05-05T10:05:25.000Z,50.18
2023-05-05T10:06:29.000Z,47.91
2023-05-05T10:07:33.000Z,48.73
2023-05-05T10:08:36.000Z,48.65
2023-05-05T10:09:40.000Z,47.58
2023-05-05T10:10:44.000Z,50.17
2023-05-05T10:11:48.000Z,48.18
2023-05-05T10:12:52.000Z,47.28
2023-05-05T10:13:55.000Z,48.05
2023-05-05T10:14:59.000Z,47.63
2023-05-05T10:16:03.000Z,50.73
2023-05-05T10:17:07.000Z,48.03
2023-05-05T10:18:11.000Z,44.99
2023-05-05T10:19:14.000Z,49.02
2023-05-05T10:20:18.000Z,51.77
2023-05-05T10:21:22.000Z,53.34
2023-05-05T10:22:26.000Z,50.8
2023-05-05T10:23:29.000Z,47.21
2023-05-05T10:24:33.000Z,50.75
2023-05-05T10:25:37.000Z,45.55
2023-05-05T10:26:41.000Z,45.28
2023-05-05T10:27:44.000Z,47.31
2023-05-05T10:28:48.000Z,49.1
2023-05-05T10:29:52.000Z,49.6
2023-05-05T10:30:56.000Z,49.3
2023-05-05T10:31:59.000Z,51.0
2023-05-05T10:33:03.000Z,48.63
2023-05-05T10:34:07.000Z,52.29
2023-05-05T10:35:11.000Z,50.65
2023-05-05T10:36:14.000Z,51.32
2023-05-05T10:37:18.000Z,49.04
2023-05-05T10:38:22.000Z,48.96
2023-05-05T10:39:26.000Z,50.45
2023-05-05T10:40:29.000Z,49.36
2023-05-05T10:41:33.000Z,47.59
2023-05-05T10:42:37.000Z,49.78
2023-05-05T10:43:41.000Z,48.11
2023-05-05T10:44:44.000Z,47.41
2023-05-05T10:45:48.000Z,49.83
2023-05-05T10:46:52.000Z,48.46
2023-05-05T10:47:56.000Z,45.89
2023-05-05T10:49:00.000Z,47.4
2023-05-05T10:50:03.000Z,50.47
2023-05-05T10:51:07.000Z,51.84
2023-05-05T10:52:11.000Z,50.13
2023-05-05T10:53:15.000Z,49.23
2023-05-05T10:54:19.000Z,51.57
2023-05-05T10:55:22.000Z,52.62
2023-05-05T10:56:26.000Z,51.6
2023-05-05T10:57:30.000Z,49.76
2023-05-05T10:58:34.000Z,46.56
2023-05-05T10:59:37.000Z,46.86
2023-05-05T11:00:41.000Z,49.56
2023-05-05T11:01:45.000Z,44.93
2023-05-05T11:02:49.000Z,50.2
2023-05-05T11:03:53.000Z,46.62
2023-05-05T11:04:56.000Z,50.05
2023-05-05T11:06:00.000Z,45.9
2023-05-05T11:07:04.000Z,50.33
2023-05-05T11:08:08.000Z,51.1
2023-05-05T11:09:17.000Z,49.21
2023-05-05T11:10:21.000Z,51.1
2023-05-05T11:11:25.000Z,48.94
2023-05-05T11:12:28.000Z,47.09
2023-05-05T11:13:32.000Z,48.01
2023-05-05T11:14:36.000Z,49.55
2023-05-05T11:15:40.000Z,50.92
2023-05-05T11:16:44.000Z,50.74
2023-05-05T11:17:47.000Z,49.35
2023-05-05T11:18:51.000Z,49.85
2023-05-05T11:19:55.000Z,49.75
2023-05-05T11:20:59.000Z,54.74
2023-05-05T11:22:03.000Z,52.0
2023-05-05T11:23:06.000Z,53.56
2023-05-05T11:24:10.000Z,50.2
2023-05-05T11:25:14.000Z,50.78
2023-05-05T11:26:18.000Z,51.15
2023-05-05T11:27:21.000Z,50.3
2023-05-05T11:28:25.000Z,50.65
2023-05-05T11:29:29.000Z,49.38
2023-05-05T11:30:33.000Z,50.45
2023-05-05T11:31:37.000Z,50.27
2023-05-05T11:32:40.000Z,55.21
2023-05-05T11:33:44.000Z,55.35
2023-05-05T11:34:48.000Z,49.26
2023-05-05T11:35:51.000Z,49.78
2023-05-05T11:36:55.000Z,51.7
2023-05-05T11:37:59.000Z,50.8
2023-05-05T11:39:03.000Z,50.98
2023-05-05T11:40:06.000Z,51.05
2023-05-05T11:41:10.000Z,53.06
2023-05-05T11:42:14.000Z,50.5
2023-05-05T11:43:17.000Z,50.18
2023-05-05T11:44:21.000Z,51.67
2023-05-05T11:45:25.000Z,48.83
2023-05-05T11:46:29.000Z,49.8
2023-05-05T11:47:32.000Z,53.66
2023-05-05T11:48:36.000Z,51.25
2023-05-05T11:49:40.000Z,52.02
2023-05-05T11:50:44.000Z,49.53
2023-05-05T11:51:47.000Z,50.9
2023-05-05T11:52:51.000Z,48.61
2023-05-05T11:53:55.000Z,48.39
2023-05-05T11:54:59.000Z,50.65
2023-05-05T11:56:03.000Z,48.72
2023-05-05T11:57:06.000Z,49.21
2023-05-05T11:58:10.000Z,50.09
2023-05-05T11:59:14.000Z,48.4
2023-05-05T12:00:18.000Z,45.86
2023-05-05T12:01:21.000Z,52.14
2023-05-05T12:02:25.000Z,48.27
2023-05-05T12:03:29.000Z,48.19
2023-05-05T12:04:33.000Z,49.19
2023-05-05T12:05:37.000Z,47.8
2023-05-05T12:06:40.000Z,47.56
2023-05-05T12:07:44.000Z,48.56
2023-05-05T12:08:48.000Z,49.36
2023-05-05T12:09:52.000Z,48.58
2023-05-05T12:10:56.000Z,50.2
2023-05-05T12:11:59.000Z,53.56
2023-05-05T12:13:03.000Z,48.44
2023-05-05T12:14:07.000Z,49.7
2023-05-05T12:15:11.000Z,50.68
2023-05-05T12:16:15.000Z,50.68
2023-05-05T12:17:18.000Z,50.92
2023-05-05T12:18:22.000Z,51.1
2023-05-05T12:19:26.000Z,49.8
2023-05-05T12:20:30.000Z,51.0
2023-05-05T12:21:33.000Z,53.16
2023-05-05T12:22:37.000Z,50.85
2023-05-05T12:23:41.000Z,51.07
2023-05-05T12:24:45.000Z,49.85
2023-05-05T12:25:48.000Z,51.95
2023-05-05T12:26:52.000Z,50.45
2023-05-05T12:28:01.000Z,50.57
2023-05-05T12:29:05.000Z,51.17
2023-05-05T12:30:08.000Z,50.57
2023-05-05T12:31:12.000Z,50.78
2023-05-05T12:32:16.000Z,50.1
2023-05-05T12:33:20.000Z,50.5
2023-05-05T12:34:24.000Z,50.4
2023-05-05T12:35:27.000Z,49.21
2023-05-05T12:36:31.000Z,49.6
2023-05-05T12:37:35.000Z,52.44
2023-05-05T12:38:39.000Z,51.35
2023-05-05T12:39:43.000Z,51.5
2023-05-05T12:40:46.000Z,50.05
2023-05-05T12:41:50.000Z,48.27
2023-05-05T12:42:54.000Z,50.7
2023-05-05T12:43:58.000Z,47.53
2023-05-05T12:45:01.000Z,48.72
2023-05-05T12:46:05.000Z,45.64
2023-05-05T12:47:09.000Z,45.98
2023-05-05T12:48:13.000Z,47.6
2023-05-05T12:49:16.000Z,46.6
2023-05-05T12:50:20.000Z,48.17
2023-05-05T12:51:24.000Z,48.94
2023-05-05T12:52:28.000Z,46.88
2023-05-05T12:53:32.000Z,49.26
2023-05-05T12:54:35.000Z,48.27
2023-05-05T12:55:39.000Z,47.85
2023-05-05T12:56:43.000Z,45.41
2023-05-05T12:57:46.000Z,47.1
2023-05-05T12:58:50.000Z,47.1
2023-05-05T12:59:54.000Z,47.02
2023-05-05T13:00:58.000Z,46.83
2023-05-05T13:02:01.000Z,46.72
2023-05-05T13:03:05.000Z,46.92
2023-05-05T13:04:09.000Z,47.64
2023-05-05T13:05:13.000Z,45.85
2023-05-05T13:06:17.000Z,49.06
2023-05-05T13:07:20.000Z,50.43
2023-05-05T13:08:24.000Z,50.2
2023-05-05T13:09:28.000Z,47.62
2023-05-05T13:10:32.000Z,48.41
2023-05-05T13:11:36.000Z,47.25
2023-05-05T13:12:39.000Z,47.77
2023-05-05T13:13:43.000Z,48.19
2023-05-05T13:14:47.000Z,48.49
2023-05-05T13:15:51.000Z,49.3
2023-05-05T13:16:55.000Z,48.98
2023-05-05T13:17:58.000Z,47.69
2023-05-05T13:19:02.000Z,47.41
2023-05-05T13:20:06.000Z,47.41
2023-05-05T13:21:10.000Z,47.49
2023-05-05T13:22:14.000Z,47.79
2023-05-05T13:23:17.000Z,47.69
2023-05-05T13:24:21.000Z,47.66
2023-05-05T13:25:25.000Z,46.67
2023-05-05T13:26:29.000Z,47.89
2023-05-05T13:27:33.000Z,46.59
2023-05-05T13:28:36.000Z,46.79
2023-05-05T13:29:40.000Z,48.54
2023-05-05T13:30:44.000Z,46.83
2023-05-05T13:31:48.000Z,48.02
2023-05-05T13:32:52.000Z,46.03
2023-05-05T13:33:55.000Z,45.85
2023-05-05T13:34:59.000Z,46.55
2023-05-05T13:36:03.000Z,45.65
2023-05-05T13:37:07.000Z,47.42
2023-05-05T13:38:10.000Z,47.17
2023-05-05T13:39:14.000Z,45.01
2023-05-05T13:40:18.000Z,47.89
2023-05-05T13:41:22.000Z,47.47
2023-05-05T13:42:25.000Z,47.3
2023-05-05T13:43:29.000Z,46.7
2023-05-05T13:44:33.000Z,46.92